sensor_id;sensor_type;location;lat;lon;timestamp;pressure;altitude;pressure_sealevel;temperature;humidity
36834;BME280;48003;52.084;5.224;2023-04-19T00:00:26;102843.0;;;12.99;60.0
36834;BME280;48003;52.084;5.224;2023-04-19T00:03:38;102844.0;;;12.98;60.03
36834;BME280;48003;52.084;5.224;2023-04-19T00:05:15;102840.00000000001;;;13.04;60.09
36834;BME280;48003;52.084;5.224;2023-04-19T00:06:51;102841.00000000001;;;13.03;60.21
36834;BME280;48003;52.084;5.224;2023-04-19T00:10:05;102838.00000000001;;;13.07;60.11
36834;BME280;48003;52.084;5.224;2023-04-19T00:11:42;102838.00000000001;;;13.06;60.34
36834;BME280;48003;52.084;5.224;2023-04-19T00:16:31;102831.0;;;13.07;60.47
36834;BME280;48003;52.084;5.224;2023-04-19T00:18:07;102833.0;;;13.09;60.43
36834;BME280;48003;52.084;5.224;2023-04-19T00:19:43;102831.0;;;13.14;60.55
36834;BME280;48003;52.084;5.224;2023-04-19T00:21:19;102830.0;;;13.11;60.55
36834;BME280;48003;52.084;5.224;2023-04-19T00:24:31;102830.0;;;13.06;60.68
36834;BME280;48003;52.084;5.224;2023-04-19T00:26:07;102830.0;;;13.07;60.77
36834;BME280;48003;52.084;5.224;2023-04-19T00:27:43;102829.0;;;13.05;61.0
36834;BME280;48003;52.084;5.224;2023-04-19T00:30:56;102826.0;;;13.08;60.93
36834;BME280;48003;52.084;5.224;2023-04-19T00:32:33;102824.0;;;13.07;61.11
36834;BME280;48003;52.084;5.224;2023-04-19T00:34:09;102827.0;;;13.12;61.2
36834;BME280;48003;52.084;5.224;2023-04-19T00:37:21;102828.0;;;13.11;61.18
36834;BME280;48003;52.084;5.224;2023-04-19T00:38:58;102823.0;;;13.11;61.1
36834;BME280;48003;52.084;5.224;2023-04-19T00:42:11;102822.0;;;13.04;61.4
36834;BME280;48003;52.084;5.224;2023-04-19T00:45:24;102821.0;;;13.02;61.49
36834;BME280;48003;52.084;5.224;2023-04-19T00:47:01;102818.0;;;12.97;61.61
36834;BME280;48003;52.084;5.224;2023-04-19T00:48:37;102821.0;;;12.94;61.79
36834;BME280;48003;52.084;5.224;2023-04-19T00:51:50;102816.00000000001;;;12.87;62.09
36834;BME280;48003;52.084;5.224;2023-04-19T00:53:26;102816.00000000001;;;12.84;62.2
36834;BME280;48003;52.084;5.224;2023-04-19T00:55:03;102817.0;;;12.83;62.26
36834;BME280;48003;52.084;5.224;2023-04-19T00:58:16;102816.00000000001;;;12.79;62.25
36834;BME280;48003;52.084;5.224;2023-04-19T00:59:53;102819.0;;;12.77;62.34
36834;BME280;48003;52.084;5.224;2023-04-19T01:01:30;102817.0;;;12.73;62.5
36834;BME280;48003;52.084;5.224;2023-04-19T01:03:06;102815.00000000001;;;12.72;62.39
36834;BME280;48003;52.084;5.224;2023-04-19T01:06:18;102818.0;;;12.7;62.49
36834;BME280;48003;52.084;5.224;2023-04-19T01:07:54;102817.0;;;12.67;62.6
36834;BME280;48003;52.084;5.224;2023-04-19T01:09:30;102820.0;;;12.59;62.8
36834;BME280;48003;52.084;5.224;2023-04-19T01:12:43;102820.0;;;12.58;62.84
36834;BME280;48003;52.084;5.224;2023-04-19T01:14:19;102819.0;;;12.6;62.89
36834;BME280;48003;52.084;5.224;2023-04-19T01:15:56;102815.00000000001;;;12.56;63.0
36834;BME280;48003;52.084;5.224;2023-04-19T01:19:09;102815.00000000001;;;12.52;63.25
36834;BME280;48003;52.084;5.224;2023-04-19T01:20:45;102813.00000000001;;;12.5;63.37
36834;BME280;48003;52.084;5.224;2023-04-19T01:22:21;102817.0;;;12.47;63.46
36834;BME280;48003;52.084;5.224;2023-04-19T01:25:34;102818.0;;;12.48;63.45
36834;BME280;48003;52.084;5.224;2023-04-19T01:27:10;102815.00000000001;;;12.41;63.6
36834;BME280;48003;52.084;5.224;2023-04-19T01:28:47;102811.99999999999;;;12.38;63.79
36834;BME280;48003;52.084;5.224;2023-04-19T01:30:23;102820.0;;;12.37;63.89
36834;BME280;48003;52.084;5.224;2023-04-19T01:33:36;102820.0;;;12.41;63.8
36834;BME280;48003;52.084;5.224;2023-04-19T01:35:12;102821.0;;;12.34;63.97
36834;BME280;48003;52.084;5.224;2023-04-19T01:36:48;102817.0;;;12.32;64.23
36834;BME280;48003;52.084;5.224;2023-04-19T01:40:01;102816.00000000001;;;12.31;64.5
36834;BME280;48003;52.084;5.224;2023-04-19T01:41:38;102816.00000000001;;;12.32;64.53
36834;BME280;48003;52.084;5.224;2023-04-19T01:43:16;102817.0;;;12.31;64.63
36834;BME280;48003;52.084;5.224;2023-04-19T01:46:28;102811.99999999999;;;12.32;64.61
36834;BME280;48003;52.084;5.224;2023-04-19T01:48:05;102808.0;;;12.35;64.52
36834;BME280;48003;52.084;5.224;2023-04-19T01:49:41;102814.00000000001;;;12.35;64.66
36834;BME280;48003;52.084;5.224;2023-04-19T01:51:17;102814.00000000001;;;12.35;64.64
36834;BME280;48003;52.084;5.224;2023-04-19T01:54:30;102815.00000000001;;;12.39;64.44
36834;BME280;48003;52.084;5.224;2023-04-19T01:56:06;102809.99999999999;;;12.36;64.61
36834;BME280;48003;52.084;5.224;2023-04-19T01:57:43;102814.00000000001;;;12.37;64.77
36834;BME280;48003;52.084;5.224;2023-04-19T02:00:55;102811.99999999999;;;12.3;64.81
36834;BME280;48003;52.084;5.224;2023-04-19T02:02:31;102806.0;;;12.35;64.88
36834;BME280;48003;52.084;5.224;2023-04-19T02:04:08;102807.0;;;12.36;64.83
36834;BME280;48003;52.084;5.224;2023-04-19T02:07:21;102814.00000000001;;;12.38;64.83
36834;BME280;48003;52.084;5.224;2023-04-19T02:08:57;102806.0;;;12.42;64.74
36834;BME280;48003;52.084;5.224;2023-04-19T02:10:33;102808.0;;;12.4;64.87
36834;BME280;48003;52.084;5.224;2023-04-19T02:12:10;102802.0;;;12.42;65.05
36834;BME280;48003;52.084;5.224;2023-04-19T02:15:22;102806.0;;;12.41;65.05
36834;BME280;48003;52.084;5.224;2023-04-19T02:16:58;102801.0;;;12.43;65.0
36834;BME280;48003;52.084;5.224;2023-04-19T02:18:34;102803.0;;;12.41;65.12
36834;BME280;48003;52.084;5.224;2023-04-19T02:21:46;102802.0;;;12.45;65.09
36834;BME280;48003;52.084;5.224;2023-04-19T02:23:23;102802.0;;;12.43;65.13
36834;BME280;48003;52.084;5.224;2023-04-19T02:24:59;102802.0;;;12.43;65.27
36834;BME280;48003;52.084;5.224;2023-04-19T02:28:12;102798.0;;;12.46;65.24
36834;BME280;48003;52.084;5.224;2023-04-19T02:29:48;102803.0;;;12.45;65.3
36834;BME280;48003;52.084;5.224;2023-04-19T02:31:24;102800.0;;;12.48;65.24
36834;BME280;48003;52.084;5.224;2023-04-19T02:34:36;102800.0;;;12.49;65.27
36834;BME280;48003;52.084;5.224;2023-04-19T02:36:12;102803.0;;;12.45;65.37
36834;BME280;48003;52.084;5.224;2023-04-19T02:37:48;102801.0;;;12.48;65.37
36834;BME280;48003;52.084;5.224;2023-04-19T02:39:25;102803.0;;;12.47;65.38
36834;BME280;48003;52.084;5.224;2023-04-19T02:42:38;102803.0;;;12.47;65.48
36834;BME280;48003;52.084;5.224;2023-04-19T02:44:14;102806.0;;;12.48;65.52
36834;BME280;48003;52.084;5.224;2023-04-19T02:45:50;102808.0;;;12.49;65.55
36834;BME280;48003;52.084;5.224;2023-04-19T02:49:02;102807.0;;;12.48;65.52
36834;BME280;48003;52.084;5.224;2023-04-19T02:50:38;102805.0;;;12.52;65.5
36834;BME280;48003;52.084;5.224;2023-04-19T02:52:15;102807.0;;;12.58;65.35
36834;BME280;48003;52.084;5.224;2023-04-19T02:55:27;102808.0;;;12.59;65.28
36834;BME280;48003;52.084;5.224;2023-04-19T02:57:03;102809.99999999999;;;12.57;65.44
36834;BME280;48003;52.084;5.224;2023-04-19T02:58:39;102813.00000000001;;;12.63;65.48
36834;BME280;48003;52.084;5.224;2023-04-19T03:00:16;102809.99999999999;;;12.62;65.45
36834;BME280;48003;52.084;5.224;2023-04-19T03:03:29;102814.00000000001;;;12.62;65.5
36834;BME280;48003;52.084;5.224;2023-04-19T03:05:05;102813.00000000001;;;12.65;65.41
36834;BME280;48003;52.084;5.224;2023-04-19T03:06:42;102808.99999999999;;;12.63;65.53
36834;BME280;48003;52.084;5.224;2023-04-19T03:09:54;102806.0;;;12.62;65.64
36834;BME280;48003;52.084;5.224;2023-04-19T03:11:30;102805.0;;;12.65;65.74
36834;BME280;48003;52.084;5.224;2023-04-19T03:13:06;102809.99999999999;;;12.66;65.66
36834;BME280;48003;52.084;5.224;2023-04-19T03:16:18;102803.0;;;12.66;65.61
36834;BME280;48003;52.084;5.224;2023-04-19T03:17:55;102806.0;;;12.67;65.5
36834;BME280;48003;52.084;5.224;2023-04-19T03:19:31;102804.0;;;12.68;65.58
36834;BME280;48003;52.084;5.224;2023-04-19T03:22:43;102806.0;;;12.71;65.44
36834;BME280;48003;52.084;5.224;2023-04-19T03:24:22;102804.0;;;12.71;65.34
36834;BME280;48003;52.084;5.224;2023-04-19T03:26:02;102798.0;;;12.72;65.56
36834;BME280;48003;52.084;5.224;2023-04-19T03:27:39;102802.0;;;12.76;65.24
36834;BME280;48003;52.084;5.224;2023-04-19T03:30:51;102804.0;;;12.72;65.39
36834;BME280;48003;52.084;5.224;2023-04-19T03:32:28;102802.0;;;12.8;65.11
36834;BME280;48003;52.084;5.224;2023-04-19T03:34:04;102806.0;;;12.79;65.19
36834;BME280;48003;52.084;5.224;2023-04-19T03:37:16;102804.0;;;12.79;65.25
36834;BME280;48003;52.084;5.224;2023-04-19T03:38:52;102804.0;;;12.81;65.14
36834;BME280;48003;52.084;5.224;2023-04-19T03:40:29;102798.0;;;12.85;65.09
36834;BME280;48003;52.084;5.224;2023-04-19T03:42:05;102797.0;;;12.83;65.11
36834;BME280;48003;52.084;5.224;2023-04-19T03:45:18;102794.0;;;12.85;65.05
36834;BME280;48003;52.084;5.224;2023-04-19T03:46:54;102797.0;;;12.82;65.06
36834;BME280;48003;52.084;5.224;2023-04-19T03:48:30;102797.0;;;12.85;64.94
36834;BME280;48003;52.084;5.224;2023-04-19T03:51:43;102796.0;;;12.83;64.89
36834;BME280;48003;52.084;5.224;2023-04-19T03:53:19;102792.0;;;12.89;64.83
36834;BME280;48003;52.084;5.224;2023-04-19T03:54:55;102800.0;;;12.79;65.06
36834;BME280;48003;52.084;5.224;2023-04-19T03:58:08;102798.0;;;12.78;65.17
36834;BME280;48003;52.084;5.224;2023-04-19T03:59:44;102800.0;;;12.83;64.99
36834;BME280;48003;52.084;5.224;2023-04-19T04:01:21;102802.0;;;12.84;65.08
36834;BME280;48003;52.084;5.224;2023-04-19T04:04:33;102801.0;;;12.8;65.11
36834;BME280;48003;52.084;5.224;2023-04-19T04:06:09;102798.0;;;12.84;64.97
36834;BME280;48003;52.084;5.224;2023-04-19T04:07:45;102793.0;;;12.82;64.85
36834;BME280;48003;52.084;5.224;2023-04-19T04:09:21;102794.0;;;12.83;64.88
36834;BME280;48003;52.084;5.224;2023-04-19T04:12:34;102792.0;;;12.84;64.78
36834;BME280;48003;52.084;5.224;2023-04-19T04:14:10;102794.0;;;12.82;64.77
36834;BME280;48003;52.084;5.224;2023-04-19T04:15:46;102793.0;;;12.81;64.66
36834;BME280;48003;52.084;5.224;2023-04-19T04:18:58;102792.0;;;12.86;64.63
36834;BME280;48003;52.084;5.224;2023-04-19T04:20:34;102792.0;;;12.72;64.86
36834;BME280;48003;52.084;5.224;2023-04-19T04:22:11;102793.0;;;12.66;65.11
36834;BME280;48003;52.084;5.224;2023-04-19T04:25:23;102797.0;;;12.64;65.05
36834;BME280;48003;52.084;5.224;2023-04-19T04:26:59;102792.0;;;12.55;65.16
36834;BME280;48003;52.084;5.224;2023-04-19T04:28:35;102795.0;;;12.5;65.06
36834;BME280;48003;52.084;5.224;2023-04-19T04:30:11;102796.0;;;12.55;64.98
36834;BME280;48003;52.084;5.224;2023-04-19T04:33:23;102792.0;;;12.47;64.97
36834;BME280;48003;52.084;5.224;2023-04-19T04:35:00;102798.0;;;12.46;64.85
36834;BME280;48003;52.084;5.224;2023-04-19T04:36:36;102797.0;;;12.46;64.78
36834;BME280;48003;52.084;5.224;2023-04-19T04:39:47;102793.0;;;12.42;64.87
36834;BME280;48003;52.084;5.224;2023-04-19T04:41:22;102795.0;;;12.41;64.72
36834;BME280;48003;52.084;5.224;2023-04-19T04:42:58;102797.0;;;12.4;64.77
36834;BME280;48003;52.084;5.224;2023-04-19T04:46:09;102796.0;;;12.34;64.87
36834;BME280;48003;52.084;5.224;2023-04-19T04:47:45;102797.0;;;12.3;65.05
36834;BME280;48003;52.084;5.224;2023-04-19T04:49:22;102800.0;;;12.26;65.03
36834;BME280;48003;52.084;5.224;2023-04-19T04:52:33;102795.0;;;12.23;65.0
36834;BME280;48003;52.084;5.224;2023-04-19T04:54:09;102797.0;;;12.2;64.97
36834;BME280;48003;52.084;5.224;2023-04-19T04:55:44;102798.0;;;12.2;65.0
36834;BME280;48003;52.084;5.224;2023-04-19T04:58:57;102799.0;;;12.22;64.74
36834;BME280;48003;52.084;5.224;2023-04-19T05:00:32;102798.0;;;12.19;64.81
36834;BME280;48003;52.084;5.224;2023-04-19T05:02:08;102796.0;;;12.19;64.85
36834;BME280;48003;52.084;5.224;2023-04-19T05:03:44;102799.0;;;12.16;64.77
36834;BME280;48003;52.084;5.224;2023-04-19T05:06:55;102798.0;;;12.11;64.66
36834;BME280;48003;52.084;5.224;2023-04-19T05:08:31;102799.0;;;12.11;64.62
36834;BME280;48003;52.084;5.224;2023-04-19T05:10:07;102799.0;;;12.11;64.52
36834;BME280;48003;52.084;5.224;2023-04-19T05:13:20;102804.0;;;12.07;64.55
36834;BME280;48003;52.084;5.224;2023-04-19T05:14:56;102808.99999999999;;;12.07;64.52
36834;BME280;48003;52.084;5.224;2023-04-19T05:16:32;102808.99999999999;;;12.05;64.69
36834;BME280;48003;52.084;5.224;2023-04-19T05:19:44;102805.0;;;12.02;64.62
36834;BME280;48003;52.084;5.224;2023-04-19T05:21:21;102808.99999999999;;;12.03;64.58
36834;BME280;48003;52.084;5.224;2023-04-19T05:22:57;102815.00000000001;;;12.0;64.44
36834;BME280;48003;52.084;5.224;2023-04-19T05:26:10;102811.99999999999;;;12.03;64.23
36834;BME280;48003;52.084;5.224;2023-04-19T05:27:46;102815.00000000001;;;12.07;64.22
36834;BME280;48003;52.084;5.224;2023-04-19T05:29:22;102818.0;;;12.06;64.05
36834;BME280;48003;52.084;5.224;2023-04-19T05:30:58;102820.0;;;12.08;63.83
36834;BME280;48003;52.084;5.224;2023-04-19T05:34:10;102818.0;;;12.06;63.7
36834;BME280;48003;52.084;5.224;2023-04-19T05:35:46;102817.0;;;12.07;63.41
36834;BME280;48003;52.084;5.224;2023-04-19T05:37:22;102818.0;;;12.11;62.82
36834;BME280;48003;52.084;5.224;2023-04-19T05:40:35;102817.0;;;12.12;62.85
36834;BME280;48003;52.084;5.224;2023-04-19T05:42:11;102820.0;;;12.06;62.99
36834;BME280;48003;52.084;5.224;2023-04-19T05:43:47;102820.0;;;12.09;62.77
36834;BME280;48003;52.084;5.224;2023-04-19T05:47:01;102818.0;;;12.09;62.37
36834;BME280;48003;52.084;5.224;2023-04-19T05:48:37;102817.0;;;12.14;61.99
36834;BME280;48003;52.084;5.224;2023-04-19T05:50:13;102817.0;;;12.14;61.75
36834;BME280;48003;52.084;5.224;2023-04-19T05:51:49;102817.0;;;12.17;61.63
36834;BME280;48003;52.084;5.224;2023-04-19T05:55:04;102822.0;;;12.19;61.54
36834;BME280;48003;52.084;5.224;2023-04-19T05:56:40;102817.0;;;12.13;60.86
36834;BME280;48003;52.084;5.224;2023-04-19T05:58:17;102818.0;;;12.16;60.61
36834;BME280;48003;52.084;5.224;2023-04-19T06:01:29;102818.0;;;12.16;59.77
36834;BME280;48003;52.084;5.224;2023-04-19T06:03:07;102819.0;;;12.21;59.88
36834;BME280;48003;52.084;5.224;2023-04-19T06:04:44;102821.0;;;12.2;59.14
36834;BME280;48003;52.084;5.224;2023-04-19T06:07:58;102815.00000000001;;;12.24;59.37
36834;BME280;48003;52.084;5.224;2023-04-19T06:09:34;102818.0;;;12.22;59.14
36834;BME280;48003;52.084;5.224;2023-04-19T06:11:10;102817.0;;;12.25;58.78
36834;BME280;48003;52.084;5.224;2023-04-19T06:12:46;102816.00000000001;;;12.26;58.48
36834;BME280;48003;52.084;5.224;2023-04-19T06:16:01;102819.0;;;12.28;57.85
36834;BME280;48003;52.084;5.224;2023-04-19T06:17:37;102817.0;;;12.28;57.11
36834;BME280;48003;52.084;5.224;2023-04-19T06:19:13;102818.0;;;12.38;56.98
36834;BME280;48003;52.084;5.224;2023-04-19T06:22:27;102818.0;;;12.39;56.36
36834;BME280;48003;52.084;5.224;2023-04-19T06:24:05;102816.00000000001;;;12.41;56.11
36834;BME280;48003;52.084;5.224;2023-04-19T06:25:42;102814.00000000001;;;12.4;55.61
36834;BME280;48003;52.084;5.224;2023-04-19T06:28:54;102817.0;;;12.41;55.46
36834;BME280;48003;52.084;5.224;2023-04-19T06:30:30;102815.00000000001;;;12.52;54.94
36834;BME280;48003;52.084;5.224;2023-04-19T06:32:06;102817.0;;;12.54;54.43
36834;BME280;48003;52.084;5.224;2023-04-19T06:33:42;102814.00000000001;;;12.55;54.05
36834;BME280;48003;52.084;5.224;2023-04-19T06:36:54;102817.0;;;12.56;53.69
36834;BME280;48003;52.084;5.224;2023-04-19T06:38:31;102817.0;;;12.64;53.66
36834;BME280;48003;52.084;5.224;2023-04-19T06:40:08;102809.99999999999;;;12.66;53.72
36834;BME280;48003;52.084;5.224;2023-04-19T06:43:20;102813.00000000001;;;12.69;52.72
36834;BME280;48003;52.084;5.224;2023-04-19T06:44:56;102809.99999999999;;;12.74;52.24
36834;BME280;48003;52.084;5.224;2023-04-19T06:46:32;102806.0;;;12.67;51.88
36834;BME280;48003;52.084;5.224;2023-04-19T06:49:44;102804.0;;;12.66;51.54
36834;BME280;48003;52.084;5.224;2023-04-19T06:51:21;102802.0;;;12.74;51.39
36834;BME280;48003;52.084;5.224;2023-04-19T06:52:57;102806.0;;;12.8;51.57
36834;BME280;48003;52.084;5.224;2023-04-19T06:54:33;102804.0;;;12.81;50.67
36834;BME280;48003;52.084;5.224;2023-04-19T06:57:45;102799.0;;;12.97;50.27
36834;BME280;48003;52.084;5.224;2023-04-19T06:59:22;102805.0;;;12.9;49.26
36834;BME280;48003;52.084;5.224;2023-04-19T07:00:58;102806.0;;;12.93;48.4
36834;BME280;48003;52.084;5.224;2023-04-19T07:04:11;102805.0;;;13.02;48.08
36834;BME280;48003;52.084;5.224;2023-04-19T07:05:48;102806.0;;;13.13;47.88
36834;BME280;48003;52.084;5.224;2023-04-19T07:07:24;102805.0;;;13.24;47.62
36834;BME280;48003;52.084;5.224;2023-04-19T07:10:37;102806.0;;;13.28;47.18
36834;BME280;48003;52.084;5.224;2023-04-19T07:12:13;102803.0;;;13.25;46.18
36834;BME280;48003;52.084;5.224;2023-04-19T07:13:50;102808.0;;;13.28;45.79
36834;BME280;48003;52.084;5.224;2023-04-19T07:17:03;102800.0;;;13.33;45.36
36834;BME280;48003;52.084;5.224;2023-04-19T07:18:39;102807.0;;;13.31;44.93
36834;BME280;48003;52.084;5.224;2023-04-19T07:20:15;102808.0;;;13.31;45.2
36834;BME280;48003;52.084;5.224;2023-04-19T07:21:51;102804.0;;;13.42;44.96
36834;BME280;48003;52.084;5.224;2023-04-19T07:25:04;102802.0;;;13.47;45.18
36834;BME280;48003;52.084;5.224;2023-04-19T07:26:41;102800.0;;;13.42;44.36
36834;BME280;48003;52.084;5.224;2023-04-19T07:28:17;102805.0;;;13.57;44.17
36834;BME280;48003;52.084;5.224;2023-04-19T07:31:29;102808.99999999999;;;13.63;44.73
36834;BME280;48003;52.084;5.224;2023-04-19T07:33:06;102809.99999999999;;;13.6;44.0
36834;BME280;48003;52.084;5.224;2023-04-19T07:34:42;102813.00000000001;;;13.54;43.77
36834;BME280;48003;52.084;5.224;2023-04-19T07:37:54;102817.0;;;13.59;43.4
36834;BME280;48003;52.084;5.224;2023-04-19T07:39:31;102808.0;;;13.6;43.14
36834;BME280;48003;52.084;5.224;2023-04-19T07:41:07;102817.0;;;13.72;42.97
36834;BME280;48003;52.084;5.224;2023-04-19T07:42:43;102817.0;;;13.78;43.6
36834;BME280;48003;52.084;5.224;2023-04-19T07:45:55;102813.00000000001;;;13.72;43.21
36834;BME280;48003;52.084;5.224;2023-04-19T07:47:31;102818.0;;;13.76;42.35
36834;BME280;48003;52.084;5.224;2023-04-19T07:49:07;102818.0;;;13.74;42.2
36834;BME280;48003;52.084;5.224;2023-04-19T07:52:19;102816.00000000001;;;13.76;42.16
36834;BME280;48003;52.084;5.224;2023-04-19T07:53:56;102819.0;;;13.67;42.2
36834;BME280;48003;52.084;5.224;2023-04-19T07:55:32;102816.00000000001;;;13.66;41.56
36834;BME280;48003;52.084;5.224;2023-04-19T07:58:44;102808.99999999999;;;13.64;41.48
36834;BME280;48003;52.084;5.224;2023-04-19T08:00:20;102814.00000000001;;;13.72;41.57
36834;BME280;48003;52.084;5.224;2023-04-19T08:01:56;102817.0;;;13.74;41.83
36834;BME280;48003;52.084;5.224;2023-04-19T08:05:10;102813.00000000001;;;13.62;41.87
36834;BME280;48003;52.084;5.224;2023-04-19T08:06:46;102809.99999999999;;;13.63;41.41
36834;BME280;48003;52.084;5.224;2023-04-19T08:08:23;102817.0;;;13.65;41.17
36834;BME280;48003;52.084;5.224;2023-04-19T08:09:59;102815.00000000001;;;13.58;40.92
36834;BME280;48003;52.084;5.224;2023-04-19T08:13:11;102816.00000000001;;;13.67;41.6
36834;BME280;48003;52.084;5.224;2023-04-19T08:14:47;102816.00000000001;;;13.81;42.19
36834;BME280;48003;52.084;5.224;2023-04-19T08:16:23;102817.0;;;13.87;42.12
36834;BME280;48003;52.084;5.224;2023-04-19T08:19:36;102825.0;;;13.94;41.58
36834;BME280;48003;52.084;5.224;2023-04-19T08:21:12;102816.00000000001;;;14.0;41.64
36834;BME280;48003;52.084;5.224;2023-04-19T08:22:48;102823.0;;;14.02;41.74
36834;BME280;48003;52.084;5.224;2023-04-19T08:26:00;102821.0;;;14.08;42.51
36834;BME280;48003;52.084;5.224;2023-04-19T08:27:36;102823.0;;;13.98;40.94
36834;BME280;48003;52.084;5.224;2023-04-19T08:29:12;102811.99999999999;;;14.04;40.97
36834;BME280;48003;52.084;5.224;2023-04-19T08:30:48;102818.0;;;14.0;41.32
36834;BME280;48003;52.084;5.224;2023-04-19T08:34:01;102821.0;;;14.17;41.08
36834;BME280;48003;52.084;5.224;2023-04-19T08:35:37;102814.00000000001;;;14.08;40.75
36834;BME280;48003;52.084;5.224;2023-04-19T08:37:14;102815.00000000001;;;14.15;40.57
36834;BME280;48003;52.084;5.224;2023-04-19T08:40:29;102817.0;;;14.14;39.87
36834;BME280;48003;52.084;5.224;2023-04-19T08:42:07;102815.00000000001;;;14.07;39.06
36834;BME280;48003;52.084;5.224;2023-04-19T08:43:44;102811.99999999999;;;14.14;39.39
36834;BME280;48003;52.084;5.224;2023-04-19T08:47:02;102817.0;;;14.22;39.11
36834;BME280;48003;52.084;5.224;2023-04-19T08:48:39;102817.0;;;14.28;39.17
36834;BME280;48003;52.084;5.224;2023-04-19T08:50:19;102819.0;;;14.09;38.96
36834;BME280;48003;52.084;5.224;2023-04-19T08:51:57;102813.00000000001;;;14.21;39.17
36834;BME280;48003;52.084;5.224;2023-04-19T08:55:09;102811.99999999999;;;14.22;39.39
36834;BME280;48003;52.084;5.224;2023-04-19T08:56:46;102809.99999999999;;;14.3;38.96
36834;BME280;48003;52.084;5.224;2023-04-19T08:58:22;102807.0;;;14.33;40.39
36834;BME280;48003;52.084;5.224;2023-04-19T09:01:35;102815.00000000001;;;14.36;39.07
36834;BME280;48003;52.084;5.224;2023-04-19T09:03:11;102805.0;;;14.35;38.89
36834;BME280;48003;52.084;5.224;2023-04-19T09:04:47;102808.0;;;14.31;38.76
36834;BME280;48003;52.084;5.224;2023-04-19T09:06:23;102806.0;;;14.42;38.58
36834;BME280;48003;52.084;5.224;2023-04-19T09:10:04;102804.0;;;14.21;38.46
36834;BME280;48003;52.084;5.224;2023-04-19T09:11:41;102802.0;;;14.25;38.21
36834;BME280;48003;52.084;5.224;2023-04-19T09:13:17;102804.0;;;14.33;39.21
36834;BME280;48003;52.084;5.224;2023-04-19T09:14:53;102805.0;;;14.38;39.01
36834;BME280;48003;52.084;5.224;2023-04-19T09:18:07;102798.0;;;14.54;38.21
36834;BME280;48003;52.084;5.224;2023-04-19T09:19:45;102801.0;;;14.51;37.89
36834;BME280;48003;52.084;5.224;2023-04-19T09:21:29;102794.0;;;14.61;37.04
36834;BME280;48003;52.084;5.224;2023-04-19T09:23:07;102792.0;;;14.68;37.35
36834;BME280;48003;52.084;5.224;2023-04-19T09:26:21;102788.00000000001;;;14.72;36.93
36834;BME280;48003;52.084;5.224;2023-04-19T09:28:07;102783.0;;;14.74;37.61
36834;BME280;48003;52.084;5.224;2023-04-19T09:29:52;102793.0;;;14.75;37.22
36834;BME280;48003;52.084;5.224;2023-04-19T09:31:29;102784.99999999999;;;14.74;35.97
36834;BME280;48003;52.084;5.224;2023-04-19T09:34:50;102779.0;;;14.83;37.76
36834;BME280;48003;52.084;5.224;2023-04-19T09:36:28;102792.0;;;14.72;35.78
36834;BME280;48003;52.084;5.224;2023-04-19T09:38:05;102789.00000000001;;;14.65;36.0
36834;BME280;48003;52.084;5.224;2023-04-19T09:41:17;102784.99999999999;;;14.7;35.1
36834;BME280;48003;52.084;5.224;2023-04-19T09:42:53;102788.00000000001;;;14.63;36.06
36834;BME280;48003;52.084;5.224;2023-04-19T09:44:29;102782.0;;;14.82;35.71
36834;BME280;48003;52.084;5.224;2023-04-19T09:46:05;102781.0;;;14.88;35.67
36834;BME280;48003;52.084;5.224;2023-04-19T09:49:19;102777.0;;;14.9;35.42
36834;BME280;48003;52.084;5.224;2023-04-19T09:50:59;102780.0;;;14.88;35.58
36834;BME280;48003;52.084;5.224;2023-04-19T09:52:35;102777.0;;;15.02;35.69
36834;BME280;48003;52.084;5.224;2023-04-19T09:55:51;102779.0;;;14.93;35.37
36834;BME280;48003;52.084;5.224;2023-04-19T09:57:27;102784.99999999999;;;15.11;36.32
36834;BME280;48003;52.084;5.224;2023-04-19T09:59:04;102783.0;;;15.1;35.99
36834;BME280;48003;52.084;5.224;2023-04-19T10:02:20;102780.0;;;15.33;36.53
36834;BME280;48003;52.084;5.224;2023-04-19T10:03:58;102776.0;;;15.38;36.65
36834;BME280;48003;52.084;5.224;2023-04-19T10:05:35;102783.0;;;15.4;36.08
36834;BME280;48003;52.084;5.224;2023-04-19T10:07:13;102783.99999999999;;;15.48;36.14
36834;BME280;48003;52.084;5.224;2023-04-19T10:10:30;102781.0;;;15.44;35.97
36834;BME280;48003;52.084;5.224;2023-04-19T10:12:07;102782.0;;;15.58;36.46
36834;BME280;48003;52.084;5.224;2023-04-19T10:13:45;102784.99999999999;;;15.55;36.1
36834;BME280;48003;52.084;5.224;2023-04-19T10:15:23;102775.0;;;15.65;35.96
36834;BME280;48003;52.084;5.224;2023-04-19T10:18:37;102778.0;;;15.76;35.97
36834;BME280;48003;52.084;5.224;2023-04-19T10:20:17;102768.0;;;15.79;35.81
36834;BME280;48003;52.084;5.224;2023-04-19T10:21:57;102768.0;;;15.78;35.35
36834;BME280;48003;52.084;5.224;2023-04-19T10:25:12;102770.0;;;15.9;35.37
36834;BME280;48003;52.084;5.224;2023-04-19T10:27:23;102771.0;;;16.04;35.31
36834;BME280;48003;52.084;5.224;2023-04-19T10:29:00;102763.00000000001;;;16.2;35.24
36834;BME280;48003;52.084;5.224;2023-04-19T10:30:51;102758.99999999999;;;16.25;34.92
36834;BME280;48003;52.084;5.224;2023-04-19T10:32:28;102761.99999999999;;;16.18;35.67
36834;BME280;48003;52.084;5.224;2023-04-19T10:34:12;102750.0;;;16.27;36.72
36834;BME280;48003;52.084;5.224;2023-04-19T10:37:25;102751.0;;;16.27;35.85
36834;BME280;48003;52.084;5.224;2023-04-19T10:39:01;102746.0;;;16.4;35.33
36834;BME280;48003;52.084;5.224;2023-04-19T10:40:55;102747.0;;;16.41;34.53
36834;BME280;48003;52.084;5.224;2023-04-19T10:45:46;102746.0;;;16.63;34.39
36834;BME280;48003;52.084;5.224;2023-04-19T10:47:39;102749.0;;;16.63;35.28
36834;BME280;48003;52.084;5.224;2023-04-19T10:49:16;102742.0;;;16.65;34.29